sensor_id;sensor_type;location;lat;lon;timestamp;temperature;humidity
49385;DHT22;36795;45.028;38.968;2023-05-14T00:00:08;16.10;65.00
49385;DHT22;36795;45.028;38.968;2023-05-14T00:02:55;16.00;65.10
49385;DHT22;36795;45.028;38.968;2023-05-14T00:05:41;16.00;65.20
49385;DHT22;36795;45.028;38.968;2023-05-14T00:08:27;16.00;65.10
49385;DHT22;36795;45.028;38.968;2023-05-14T00:11:13;16.10;65.10
49385;DHT22;36795;45.028;38.968;2023-05-14T00:14:01;16.00;65.10
49385;DHT22;36795;45.028;38.968;2023-05-14T00:16:46;16.00;65.20
49385;DHT22;36795;45.028;38.968;2023-05-14T00:19:33;16.00;65.30
49385;DHT22;36795;45.028;38.968;2023-05-14T00:22:18;16.00;65.40
49385;DHT22;36795;45.028;38.968;2023-05-14T00:25:06;16.00;65.50
49385;DHT22;36795;45.028;38.968;2023-05-14T00:27:52;16.00;65.60
49385;DHT22;36795;45.028;38.968;2023-05-14T00:30:38;16.00;65.70
49385;DHT22;36795;45.028;38.968;2023-05-14T00:33:24;16.00;65.70
49385;DHT22;36795;45.028;38.968;2023-05-14T00:36:12;16.00;65.60
49385;DHT22;36795;45.028;38.968;2023-05-14T00:38:58;16.00;66.20
49385;DHT22;36795;45.028;38.968;2023-05-14T00:41:45;16.00;65.60
49385;DHT22;36795;45.028;38.968;2023-05-14T00:44:31;16.00;65.60
49385;DHT22;36795;45.028;38.968;2023-05-14T00:47:18;15.90;65.70
49385;DHT22;36795;45.028;38.968;2023-05-14T00:50:04;15.90;65.80
49385;DHT22;36795;45.028;38.968;2023-05-14T00:52:51;15.90;65.90
49385;DHT22;36795;45.028;38.968;2023-05-14T00:55:38;15.90;66.00
49385;DHT22;36795;45.028;38.968;2023-05-14T00:58:25;15.90;66.00
49385;DHT22;36795;45.028;38.968;2023-05-14T01:01:11;15.90;66.00
49385;DHT22;36795;45.028;38.968;2023-05-14T01:04:00;15.80;66.20
49385;DHT22;36795;45.028;38.968;2023-05-14T01:09:59;15.70;66.30
49385;DHT22;36795;45.028;38.968;2023-05-14T01:15:48;15.70;66.60
49385;DHT22;36795;45.028;38.968;2023-05-14T01:18:34;15.60;66.70
49385;DHT22;36795;45.028;38.968;2023-05-14T01:21:33;15.60;66.60
49385;DHT22;36795;45.028;38.968;2023-05-14T01:24:20;15.70;66.70
49385;DHT22;36795;45.028;38.968;2023-05-14T01:30:22;15.60;66.70
49385;DHT22;36795;45.028;38.968;2023-05-14T01:33:13;15.70;66.80
49385;DHT22;36795;45.028;38.968;2023-05-14T01:36:00;15.60;66.90
49385;DHT22;36795;45.028;38.968;2023-05-14T01:38:48;15.60;67.10
49385;DHT22;36795;45.028;38.968;2023-05-14T01:41:36;15.50;67.10
49385;DHT22;36795;45.028;38.968;2023-05-14T01:44:24;15.50;67.10
49385;DHT22;36795;45.028;38.968;2023-05-14T01:47:10;15.40;67.30
49385;DHT22;36795;45.028;38.968;2023-05-14T01:49:56;15.40;67.60
49385;DHT22;36795;45.028;38.968;2023-05-14T01:52:42;15.40;67.50
49385;DHT22;36795;45.028;38.968;2023-05-14T01:55:28;15.40;67.40
49385;DHT22;36795;45.028;38.968;2023-05-14T01:58:14;15.50;67.40
49385;DHT22;36795;45.028;38.968;2023-05-14T02:01:02;15.40;67.30
49385;DHT22;36795;45.028;38.968;2023-05-14T02:03:48;15.40;67.40
49385;DHT22;36795;45.028;38.968;2023-05-14T02:06:34;15.40;67.40
49385;DHT22;36795;45.028;38.968;2023-05-14T02:09:21;15.40;67.50
49385;DHT22;36795;45.028;38.968;2023-05-14T02:12:10;15.40;67.50
49385;DHT22;36795;45.028;38.968;2023-05-14T02:14:56;15.40;67.60
49385;DHT22;36795;45.028;38.968;2023-05-14T02:17:42;15.40;67.60
49385;DHT22;36795;45.028;38.968;2023-05-14T02:20:29;15.40;67.60
49385;DHT22;36795;45.028;38.968;2023-05-14T02:23:15;15.40;67.50
49385;DHT22;36795;45.028;38.968;2023-05-14T02:26:01;15.50;67.50
49385;DHT22;36795;45.028;38.968;2023-05-14T02:28:47;15.50;67.40
49385;DHT22;36795;45.028;38.968;2023-05-14T02:31:33;15.40;67.40
49385;DHT22;36795;45.028;38.968;2023-05-14T02:34:19;15.50;67.50
49385;DHT22;36795;45.028;38.968;2023-05-14T02:37:06;15.60;67.50
49385;DHT22;36795;45.028;38.968;2023-05-14T02:39:52;15.60;67.40
49385;DHT22;36795;45.028;38.968;2023-05-14T02:42:39;15.60;67.30
49385;DHT22;36795;45.028;38.968;2023-05-14T02:45:25;15.70;67.20
49385;DHT22;36795;45.028;38.968;2023-05-14T02:48:12;15.70;67.30
49385;DHT22;36795;45.028;38.968;2023-05-14T02:50:57;15.80;67.20
49385;DHT22;36795;45.028;38.968;2023-05-14T02:53:43;15.90;66.90
49385;DHT22;36795;45.028;38.968;2023-05-14T02:56:29;15.90;66.80
49385;DHT22;36795;45.028;38.968;2023-05-14T02:59:15;16.00;66.70
49385;DHT22;36795;45.028;38.968;2023-05-14T03:02:02;16.00;66.60
49385;DHT22;36795;45.028;38.968;2023-05-14T03:04:48;16.00;66.60
49385;DHT22;36795;45.028;38.968;2023-05-14T03:07:34;16.10;66.60
49385;DHT22;36795;45.028;38.968;2023-05-14T03:10:20;16.10;66.50
49385;DHT22;36795;45.028;38.968;2023-05-14T03:13:06;16.10;66.40
49385;DHT22;36795;45.028;38.968;2023-05-14T03:15:52;16.10;66.30
49385;DHT22;36795;45.028;38.968;2023-05-14T03:18:39;16.10;66.20
49385;DHT22;36795;45.028;38.968;2023-05-14T03:21:27;16.10;66.20
49385;DHT22;36795;45.028;38.968;2023-05-14T03:24:13;16.10;66.30
49385;DHT22;36795;45.028;38.968;2023-05-14T03:26:59;16.10;66.20
49385;DHT22;36795;45.028;38.968;2023-05-14T03:29:45;16.10;66.10
49385;DHT22;36795;45.028;38.968;2023-05-14T03:32:31;16.10;66.00
49385;DHT22;36795;45.028;38.968;2023-05-14T03:35:17;16.20;66.00
49385;DHT22;36795;45.028;38.968;2023-05-14T03:38:03;16.10;65.90
49385;DHT22;36795;45.028;38.968;2023-05-14T03:40:49;16.20;65.90
49385;DHT22;36795;45.028;38.968;2023-05-14T03:43:36;16.30;65.70
49385;DHT22;36795;45.028;38.968;2023-05-14T03:46:22;16.40;65.40
49385;DHT22;36795;45.028;38.968;2023-05-14T03:49:08;16.60;65.10
49385;DHT22;36795;45.028;38.968;2023-05-14T03:51:54;16.70;64.70
49385;DHT22;36795;45.028;38.968;2023-05-14T03:54:44;16.80;64.30
49385;DHT22;36795;45.028;38.968;2023-05-14T03:57:29;16.80;64.20
49385;DHT22;36795;45.028;38.968;2023-05-14T04:00:16;16.70;64.40
49385;DHT22;36795;45.028;38.968;2023-05-14T04:03:02;16.60;64.70
49385;DHT22;36795;45.028;38.968;2023-05-14T04:05:49;16.70;64.90
49385;DHT22;36795;45.028;38.968;2023-05-14T04:08:35;16.70;64.80
49385;DHT22;36795;45.028;38.968;2023-05-14T04:11:22;16.70;64.80
49385;DHT22;36795;45.028;38.968;2023-05-14T04:14:08;16.80;64.70
49385;DHT22;36795;45.028;38.968;2023-05-14T04:16:54;16.80;64.60
49385;DHT22;36795;45.028;38.968;2023-05-14T04:19:39;16.80;64.60
49385;DHT22;36795;45.028;38.968;2023-05-14T04:22:25;17.00;64.50
49385;DHT22;36795;45.028;38.968;2023-05-14T04:25:11;16.90;64.40
49385;DHT22;36795;45.028;38.968;2023-05-14T04:27:58;17.00;64.50
49385;DHT22;36795;45.028;38.968;2023-05-14T04:30:43;17.00;64.30
49385;DHT22;36795;45.028;38.968;2023-05-14T04:33:30;17.10;64.30
49385;DHT22;36795;45.028;38.968;2023-05-14T04:36:16;17.20;64.00
49385;DHT22;36795;45.028;38.968;2023-05-14T04:39:03;17.10;63.90
49385;DHT22;36795;45.028;38.968;2023-05-14T04:41:50;17.00;64.20
49385;DHT22;36795;45.028;38.968;2023-05-14T04:44:37;17.20;64.10
49385;DHT22;36795;45.028;38.968;2023-05-14T04:47:23;17.30;63.80
49385;DHT22;36795;45.028;38.968;2023-05-14T04:50:09;17.30;63.60
49385;DHT22;36795;45.028;38.968;2023-05-14T04:52:55;17.30;63.50
49385;DHT22;36795;45.028;38.968;2023-05-14T04:55:41;17.40;63.30
49385;DHT22;36795;45.028;38.968;2023-05-14T04:58:27;17.60;62.90
49385;DHT22;36795;45.028;38.968;2023-05-14T05:01:16;17.80;62.40
49385;DHT22;36795;45.028;38.968;2023-05-14T05:04:01;17.80;62.10
49385;DHT22;36795;45.028;38.968;2023-05-14T05:06:48;17.70;62.10
49385;DHT22;36795;45.028;38.968;2023-05-14T05:09:34;17.70;62.20
49385;DHT22;36795;45.028;38.968;2023-05-14T05:12:20;17.90;62.00
49385;DHT22;36795;45.028;38.968;2023-05-14T05:15:07;18.00;61.60
49385;DHT22;36795;45.028;38.968;2023-05-14T05:17:54;17.90;61.70
49385;DHT22;36795;45.028;38.968;2023-05-14T05:20:39;17.90;61.40
49385;DHT22;36795;45.028;38.968;2023-05-14T05:23:26;17.90;61.20
49385;DHT22;36795;45.028;38.968;2023-05-14T05:26:12;18.10;61.10
49385;DHT22;36795;45.028;38.968;2023-05-14T05:28:58;18.20;60.70
49385;DHT22;36795;45.028;38.968;2023-05-14T05:31:45;18.20;60.60
49385;DHT22;36795;45.028;38.968;2023-05-14T05:34:31;18.20;60.50
49385;DHT22;36795;45.028;38.968;2023-05-14T05:37:17;18.30;60.30
49385;DHT22;36795;45.028;38.968;2023-05-14T05:40:03;18.50;60.00
49385;DHT22;36795;45.028;38.968;2023-05-14T05:42:50;18.70;59.50
49385;DHT22;36795;45.028;38.968;2023-05-14T05:45:36;19.00;59.10
49385;DHT22;36795;45.028;38.968;2023-05-14T05:48:22;19.10;58.50
49385;DHT22;36795;45.028;38.968;2023-05-14T05:51:09;19.00;58.60
49385;DHT22;36795;45.028;38.968;2023-05-14T05:53:55;19.00;58.60
49385;DHT22;36795;45.028;38.968;2023-05-14T05:56:41;18.90;58.70
49385;DHT22;36795;45.028;38.968;2023-05-14T05:59:27;18.90;58.50
49385;DHT22;36795;45.028;38.968;2023-05-14T06:02:13;19.00;58.10
49385;DHT22;36795;45.028;38.968;2023-05-14T06:04:59;19.10;58.20
49385;DHT22;36795;45.028;38.968;2023-05-14T06:07:45;19.20;58.00
49385;DHT22;36795;45.028;38.968;2023-05-14T06:10:32;19.30;57.90
49385;DHT22;36795;45.028;38.968;2023-05-14T06:13:19;19.20;57.80
49385;DHT22;36795;45.028;38.968;2023-05-14T06:16:05;19.20;57.90
49385;DHT22;36795;45.028;38.968;2023-05-14T06:18:51;19.40;57.40
49385;DHT22;36795;45.028;38.968;2023-05-14T06:21:39;19.50;57.10
49385;DHT22;36795;45.028;38.968;2023-05-14T06:24:25;19.60;56.80
49385;DHT22;36795;45.028;38.968;2023-05-14T06:27:11;19.70;56.20
49385;DHT22;36795;45.028;38.968;2023-05-14T06:29:57;19.90;55.80
49385;DHT22;36795;45.028;38.968;2023-05-14T06:32:43;19.90;55.40
49385;DHT22;36795;45.028;38.968;2023-05-14T06:35:29;20.00;55.30
49385;DHT22;36795;45.028;38.968;2023-05-14T06:38:15;20.20;55.00
49385;DHT22;36795;45.028;38.968;2023-05-14T06:41:01;20.40;54.50
49385;DHT22;36795;45.028;38.968;2023-05-14T06:43:47;20.40;54.40
49385;DHT22;36795;45.028;38.968;2023-05-14T06:46:33;20.40;54.20
49385;DHT22;36795;45.028;38.968;2023-05-14T06:49:19;20.30;54.30
49385;DHT22;36795;45.028;38.968;2023-05-14T06:52:06;20.30;54.20
49385;DHT22;36795;45.028;38.968;2023-05-14T06:54:53;20.40;54.30
49385;DHT22;36795;45.028;38.968;2023-05-14T06:57:39;20.30;54.30
49385;DHT22;36795;45.028;38.968;2023-05-14T07:00:25;20.50;54.30
49385;DHT22;36795;45.028;38.968;2023-05-14T07:03:11;20.60;53.90
49385;DHT22;36795;45.028;38.968;2023-05-14T07:05:57;20.50;54.00
49385;DHT22;36795;45.028;38.968;2023-05-14T07:08:43;20.50;54.30
49385;DHT22;36795;45.028;38.968;2023-05-14T07:11:32;20.60;54.20
49385;DHT22;36795;45.028;38.968;2023-05-14T07:14:18;20.70;53.80
49385;DHT22;36795;45.028;38.968;2023-05-14T07:17:04;20.70;53.80
49385;DHT22;36795;45.028;38.968;2023-05-14T07:19:51;20.60;54.00
49385;DHT22;36795;45.028;38.968;2023-05-14T07:22:37;20.70;53.90
49385;DHT22;36795;45.028;38.968;2023-05-14T07:25:23;20.90;53.60
49385;DHT22;36795;45.028;38.968;2023-05-14T07:28:09;21.10;53.10
49385;DHT22;36795;45.028;38.968;2023-05-14T07:30:55;21.20;52.80
49385;DHT22;36795;45.028;38.968;2023-05-14T07:33:41;21.40;52.60
49385;DHT22;36795;45.028;38.968;2023-05-14T07:36:27;21.40;52.30
49385;DHT22;36795;45.028;38.968;2023-05-14T07:39:13;21.60;52.10
49385;DHT22;36795;45.028;38.968;2023-05-14T07:42:00;21.80;51.40
49385;DHT22;36795;45.028;38.968;2023-05-14T07:44:47;22.00;50.70
49385;DHT22;36795;45.028;38.968;2023-05-14T07:47:32;22.10;50.00
49385;DHT22;36795;45.028;38.968;2023-05-14T07:50:19;22.10;50.20
49385;DHT22;36795;45.028;38.968;2023-05-14T07:53:05;22.10;49.30
49385;DHT22;36795;45.028;38.968;2023-05-14T07:55:52;22.40;48.50
49385;DHT22;36795;45.028;38.968;2023-05-14T07:58:38;22.60;47.70
49385;DHT22;36795;45.028;38.968;2023-05-14T08:01:25;22.80;47.30
49385;DHT22;36795;45.028;38.968;2023-05-14T08:04:12;22.90;46.90
49385;DHT22;36795;45.028;38.968;2023-05-14T08:07:00;22.90;46.40
49385;DHT22;36795;45.028;38.968;2023-05-14T08:09:47;22.80;46.10
49385;DHT22;36795;45.028;38.968;2023-05-14T08:12:32;22.90;46.00
49385;DHT22;36795;45.028;38.968;2023-05-14T08:15:19;23.00;45.40
49385;DHT22;36795;45.028;38.968;2023-05-14T08:18:05;23.40;44.50
49385;DHT22;36795;45.028;38.968;2023-05-14T08:20:51;23.60;43.80
49385;DHT22;36795;45.028;38.968;2023-05-14T08:23:37;23.60;43.20
49385;DHT22;36795;45.028;38.968;2023-05-14T08:26:23;23.40;43.40
49385;DHT22;36795;45.028;38.968;2023-05-14T08:29:10;23.30;42.30
49385;DHT22;36795;45.028;38.968;2023-05-14T08:31:56;23.20;42.70
49385;DHT22;36795;45.028;38.968;2023-05-14T08:34:42;23.60;42.50
49385;DHT22;36795;45.028;38.968;2023-05-14T08:37:28;24.10;41.10
49385;DHT22;36795;45.028;38.968;2023-05-14T08:40:15;24.30;40.40
49385;DHT22;36795;45.028;38.968;2023-05-14T08:43:01;24.20;40.40
49385;DHT22;36795;45.028;38.968;2023-05-14T08:45:49;24.00;40.30
49385;DHT22;36795;45.028;38.968;2023-05-14T08:48:40;23.90;39.80
49385;DHT22;36795;45.028;38.968;2023-05-14T08:51:27;23.90;39.90
49385;DHT22;36795;45.028;38.968;2023-05-14T08:54:16;23.80;40.20
49385;DHT22;36795;45.028;38.968;2023-05-14T08:57:03;24.00;40.40
49385;DHT22;36795;45.028;38.968;2023-05-14T08:59:50;24.60;39.60
49385;DHT22;36795;45.028;38.968;2023-05-14T09:02:40;25.80;38.80
49385;DHT22;36795;45.028;38.968;2023-05-14T09:05:27;27.60;36.80
49385;DHT22;36795;45.028;38.968;2023-05-14T09:08:13;28.70;35.50
49385;DHT22;36795;45.028;38.968;2023-05-14T09:10:59;29.20;34.10
49385;DHT22;36795;45.028;38.968;2023-05-14T09:13:45;28.80;33.90
49385;DHT22;36795;45.028;38.968;2023-05-14T09:16:31;28.80;34.10
49385;DHT22;36795;45.028;38.968;2023-05-14T09:19:18;28.00;34.20
49385;DHT22;36795;45.028;38.968;2023-05-14T09:22:07;27.00;35.30
49385;DHT22;36795;45.028;38.968;2023-05-14T09:25:05;26.00;36.70
49385;DHT22;36795;45.028;38.968;2023-05-14T09:27:51;25.70;37.20
49385;DHT22;36795;45.028;38.968;2023-05-14T09:30:39;25.30;37.50
49385;DHT22;36795;45.028;38.968;2023-05-14T09:33:26;24.90;37.70
49385;DHT22;36795;45.028;38.968;2023-05-14T09:36:12;24.50;38.60
49385;DHT22;36795;45.028;38.968;2023-05-14T09:38:59;24.30;39.30
49385;DHT22;36795;45.028;38.968;2023-05-14T09:41:48;24.20;39.60
49385;DHT22;36795;45.028;38.968;2023-05-14T09:44:36;24.10;39.80
49385;DHT22;36795;45.028;38.968;2023-05-14T09:47:23;24.10;40.20
49385;DHT22;36795;45.028;38.968;2023-05-14T09:50:09;24.30;40.40
49385;DHT22;36795;45.028;38.968;2023-05-14T09:52:55;24.70;40.20
49385;DHT22;36795;45.028;38.968;2023-05-14T09:55:42;24.90;40.20
49385;DHT22;36795;45.028;38.968;2023-05-14T09:58:28;25.20;39.80
49385;DHT22;36795;45.028;38.968;2023-05-14T10:01:17;25.40;39.50
49385;DHT22;36795;45.028;38.968;2023-05-14T10:04:06;25.60;39.00
49385;DHT22;36795;45.028;38.968;2023-05-14T10:06:53;26.10;38.70
49385;DHT22;36795;45.028;38.968;2023-05-14T10:09:42;26.20;38.40
49385;DHT22;36795;45.028;38.968;2023-05-14T10:12:32;26.20;38.30
49385;DHT22;36795;45.028;38.968;2023-05-14T10:15:22;25.90;38.40
49385;DHT22;36795;45.028;38.968;2023-05-14T10:18:12;25.90;38.70
49385;DHT22;36795;45.028;38.968;2023-05-14T10:21:04;26.20;38.60
49385;DHT22;36795;45.028;38.968;2023-05-14T10:23:51;26.40;38.10
49385;DHT22;36795;45.028;38.968;2023-05-14T10:26:39;26.30;38.50
49385;DHT22;36795;45.028;38.968;2023-05-14T10:29:36;26.20;38.70
49385;DHT22;36795;45.028;38.968;2023-05-14T10:32:24;26.40;38.50
49385;DHT22;36795;45.028;38.968;2023-05-14T10:35:20;26.70;38.10
49385;DHT22;36795;45.028;38.968;2023-05-14T10:38:10;26.90;37.50
49385;DHT22;36795;45.028;38.968;2023-05-14T10:43:46;26.70;38.30
49385;DHT22;36795;45.028;38.968;2023-05-14T10:46:32;26.50;38.20
49385;DHT22;36795;45.028;38.968;2023-05-14T10:49:19;26.00;39.00
49385;DHT22;36795;45.028;38.968;2023-05-14T10:52:07;25.70;39.40
49385;DHT22;36795;45.028;38.968;2023-05-14T10:54:55;25.50;39.60
49385;DHT22;36795;45.028;38.968;2023-05-14T10:57:42;25.10;40.20
49385;DHT22;36795;45.028;38.968;2023-05-14T11:00:32;24.90;40.50
49385;DHT22;36795;45.028;38.968;2023-05-14T11:03:18;24.90;40.60
49385;DHT22;36795;45.028;38.968;2023-05-14T11:06:06;25.00;40.50
49385;DHT22;36795;45.028;38.968;2023-05-14T11:08:52;25.20;40.40
49385;DHT22;36795;45.028;38.968;2023-05-14T11:11:39;25.50;40.00
49385;DHT22;36795;45.028;38.968;2023-05-14T11:14:25;25.70;39.80
49385;DHT22;36795;45.028;38.968;2023-05-14T11:17:12;25.90;39.70
49385;DHT22;36795;45.028;38.968;2023-05-14T11:19:59;26.20;39.50
49385;DHT22;36795;45.028;38.968;2023-05-14T11:22:47;26.20;38.80
49385;DHT22;36795;45.028;38.968;2023-05-14T11:25:33;25.90;38.90
49385;DHT22;36795;45.028;38.968;2023-05-14T11:28:24;25.70;39.50
49385;DHT22;36795;45.028;38.968;2023-05-14T11:31:10;25.90;39.40
49385;DHT22;36795;45.028;38.968;2023-05-14T11:33:57;26.20;39.00
49385;DHT22;36795;45.028;38.968;2023-05-14T11:36:43;26.50;38.40
49385;DHT22;36795;45.028;38.968;2023-05-14T11:39:30;26.50;38.70
49385;DHT22;36795;45.028;38.968;2023-05-14T11:42:17;26.30;39.10
49385;DHT22;36795;45.028;38.968;2023-05-14T11:45:05;26.20;39.40
49385;DHT22;36795;45.028;38.968;2023-05-14T11:47:52;26.20;39.20
49385;DHT22;36795;45.028;38.968;2023-05-14T11:50:48;26.20;39.20
49385;DHT22;36795;45.028;38.968;2023-05-14T11:53:34;26.20;39.30
49385;DHT22;36795;45.028;38.968;2023-05-14T11:56:21;26.10;39.50
49385;DHT22;36795;45.028;38.968;2023-05-14T11:59:09;26.10;40.00
49385;DHT22;36795;45.028;38.968;2023-05-14T12:01:57;26.20;39.80
49385;DHT22;36795;45.028;38.968;2023-05-14T12:04:48;25.90;39.90
49385;DHT22;36795;45.028;38.968;2023-05-14T12:07:34;25.50;40.50
49385;DHT22;36795;45.028;38.968;2023-05-14T12:10:20;25.20;40.90
49385;DHT22;36795;45.028;38.968;2023-05-14T12:13:06;25.10;41.20
49385;DHT22;36795;45.028;38.968;2023-05-14T12:15:54;25.20;41.10
49385;DHT22;36795;45.028;38.968;2023-05-14T12:18:41;25.60;40.40
49385;DHT22;36795;45.028;38.968;2023-05-14T12:21:28;25.90;39.60
49385;DHT22;36795;45.028;38.968;2023-05-14T12:24:16;25.80;39.80
49385;DHT22;36795;45.028;38.968;2023-05-14T12:27:03;25.80;39.90
49385;DHT22;36795;45.028;38.968;2023-05-14T12:30:03;25.80;40.10
49385;DHT22;36795;45.028;38.968;2023-05-14T12:32:51;25.60;40.30
49385;DHT22;36795;45.028;38.968;2023-05-14T12:35:37;25.20;41.00
49385;DHT22;36795;45.028;38.968;2023-05-14T12:38:23;25.00;41.20
49385;DHT22;36795;45.028;38.968;2023-05-14T12:41:09;24.80;41.40
49385;DHT22;36795;45.028;38.968;2023-05-14T12:43:56;24.80;41.70
49385;DHT22;36795;45.028;38.968;2023-05-14T12:46:42;24.70;41.70
49385;DHT22;36795;45.028;38.968;2023-05-14T12:49:28;24.70;41.70
49385;DHT22;36795;45.028;38.968;2023-05-14T12:52:14;24.60;41.80
49385;DHT22;36795;45.028;38.968;2023-05-14T12:55:01;24.70;42.20
49385;DHT22;36795;45.028;38.968;2023-05-14T12:57:47;24.70;42.40
49385;DHT22;36795;45.028;38.968;2023-05-14T13:00:33;24.80;42.30
49385;DHT22;36795;45.028;38.968;2023-05-14T13:03:19;25.00;41.80
49385;DHT22;36795;45.028;38.968;2023-05-14T13:06:06;25.20;41.30
49385;DHT22;36795;45.028;38.968;2023-05-14T13:08:52;25.40;41.20
49385;DHT22;36795;45.028;38.968;2023-05-14T13:11:38;25.50;40.80
49385;DHT22;36795;45.028;38.968;2023-05-14T13:14:24;25.70;40.70
49385;DHT22;36795;45.028;38.968;2023-05-14T13:17:10;26.00;40.20
49385;DHT22;36795;45.028;38.968;2023-05-14T13:19:56;26.10;39.90
49385;DHT22;36795;45.028;38.968;2023-05-14T13:22:43;26.40;39.70
49385;DHT22;36795;45.028;38.968;2023-05-14T13:25:29;26.70;39.30
49385;DHT22;36795;45.028;38.968;2023-05-14T13:28:15;27.20;38.50
49385;DHT22;36795;45.028;38.968;2023-05-14T13:31:09;28.00;38.00
49385;DHT22;36795;45.028;38.968;2023-05-14T13:33:56;28.80;37.30
49385;DHT22;36795;45.028;38.968;2023-05-14T13:36:43;28.80;37.10
49385;DHT22;36795;45.028;38.968;2023-05-14T13:39:30;28.80;36.90
49385;DHT22;36795;45.028;38.968;2023-05-14T13:42:15;29.20;36.20
49385;DHT22;36795;45.028;38.968;2023-05-14T13:45:02;29.30;36.50
49385;DHT22;36795;45.028;38.968;2023-05-14T13:47:50;29.00;35.90
49385;DHT22;36795;45.028;38.968;2023-05-14T13:50:36;28.50;36.10
49385;DHT22;36795;45.028;38.968;2023-05-14T13:53:23;28.20;37.00
49385;DHT22;36795;45.028;38.968;2023-05-14T13:56:10;28.10;36.60
49385;DHT22;36795;45.028;38.968;2023-05-14T13:58:56;28.20;36.00
49385;DHT22;36795;45.028;38.968;2023-05-14T14:01:42;28.60;35.50
49385;DHT22;36795;45.028;38.968;2023-05-14T14:04:29;28.80;34.50
49385;DHT22;36795;45.028;38.968;2023-05-14T14:07:15;28.70;34.70
49385;DHT22;36795;45.028;38.968;2023-05-14T14:10:01;28.40;35.20
49385;DHT22;36795;45.028;38.968;2023-05-14T14:12:49;27.80;35.20
49385;DHT22;36795;45.028;38.968;2023-05-14T14:15:36;27.00;35.90
49385;DHT22;36795;45.028;38.968;2023-05-14T14:18:21;26.50;36.40
49385;DHT22;36795;45.028;38.968;2023-05-14T14:21:08;26.00;36.90
49385;DHT22;36795;45.028;38.968;2023-05-14T14:23:55;25.50;37.60
49385;DHT22;36795;45.028;38.968;2023-05-14T14:26:41;25.20;38.20
49385;DHT22;36795;45.028;38.968;2023-05-14T14:29:27;25.00;38.40
49385;DHT22;36795;45.028;38.968;2023-05-14T14:32:16;24.60;40.10
49385;DHT22;36795;45.028;38.968;2023-05-14T14:35:02;24.20;42.20
49385;DHT22;36795;45.028;38.968;2023-05-14T14:37:48;24.00;42.90
49385;DHT22;36795;45.028;38.968;2023-05-14T14:40:36;23.80;43.70
49385;DHT22;36795;45.028;38.968;2023-05-14T14:43:23;23.70;44.30
49385;DHT22;36795;45.028;38.968;2023-05-14T14:46:09;23.70;44.40
49385;DHT22;36795;45.028;38.968;2023-05-14T14:48:55;23.80;44.50
49385;DHT22;36795;45.028;38.968;2023-05-14T14:51:41;23.70;44.60
49385;DHT22;36795;45.028;38.968;2023-05-14T14:54:27;23.70;44.80
49385;DHT22;36795;45.028;38.968;2023-05-14T14:57:13;23.60;44.90
49385;DHT22;36795;45.028;38.968;2023-05-14T14:59:59;23.10;44.40
49385;DHT22;36795;45.028;38.968;2023-05-14T15:02:45;22.60;44.80
49385;DHT22;36795;45.028;38.968;2023-05-14T15:05:31;22.10;47.30
49385;DHT22;36795;45.028;38.968;2023-05-14T15:08:17;21.50;51.10
49385;DHT22;36795;45.028;38.968;2023-05-14T15:11:04;20.90;54.10
49385;DHT22;36795;45.028;38.968;2023-05-14T15:13:51;20.40;57.50
49385;DHT22;36795;45.028;38.968;2023-05-14T15:16:37;19.80;60.00
49385;DHT22;36795;45.028;38.968;2023-05-14T15:19:23;19.30;62.80
49385;DHT22;36795;45.028;38.968;2023-05-14T15:22:09;18.80;64.40
49385;DHT22;36795;45.028;38.968;2023-05-14T15:24:55;18.30;66.30
49385;DHT22;36795;45.028;38.968;2023-05-14T15:27:41;18.10;67.90
49385;DHT22;36795;45.028;38.968;2023-05-14T15:30:27;18.00;68.50
49385;DHT22;36795;45.028;38.968;2023-05-14T15:33:14;18.00;68.90
49385;DHT22;36795;45.028;38.968;2023-05-14T15:36:03;17.90;69.10
49385;DHT22;36795;45.028;38.968;2023-05-14T15:38:50;17.90;69.10
49385;DHT22;36795;45.028;38.968;2023-05-14T15:41:36;17.90;69.10
49385;DHT22;36795;45.028;38.968;2023-05-14T15:44:22;17.90;69.70
49385;DHT22;36795;45.028;38.968;2023-05-14T15:47:08;17.80;71.30
49385;DHT22;36795;45.028;38.968;2023-05-14T15:49:54;17.80;70.80
49385;DHT22;36795;45.028;38.968;2023-05-14T15:52:40;17.80;70.90
49385;DHT22;36795;45.028;38.968;2023-05-14T15:55:26;17.70;70.30
49385;DHT22;36795;45.028;38.968;2023-05-14T15:58:12;17.60;70.00
49385;DHT22;36795;45.028;38.968;2023-05-14T16:00:59;17.50;69.40
49385;DHT22;36795;45.028;38.968;2023-05-14T16:03:45;17.30;68.90
49385;DHT22;36795;45.028;38.968;2023-05-14T16:06:32;17.10;68.30
49385;DHT22;36795;45.028;38.968;2023-05-14T16:09:19;17.10;67.60
49385;DHT22;36795;45.028;38.968;2023-05-14T16:12:06;17.20;66.00
49385;DHT22;36795;45.028;38.968;2023-05-14T16:14:52;17.30;64.10
49385;DHT22;36795;45.028;38.968;2023-05-14T16:17:38;17.40;63.00
49385;DHT22;36795;45.028;38.968;2023-05-14T16:20:24;17.50;62.80
49385;DHT22;36795;45.028;38.968;2023-05-14T16:23:10;17.60;61.50
49385;DHT22;36795;45.028;38.968;2023-05-14T16:25:56;17.70;61.40
49385;DHT22;36795;45.028;38.968;2023-05-14T16:28:42;17.70;62.40
49385;DHT22;36795;45.028;38.968;2023-05-14T16:31:28;17.70;63.60
49385;DHT22;36795;45.028;38.968;2023-05-14T16:34:15;17.60;64.90
49385;DHT22;36795;45.028;38.968;2023-05-14T16:37:02;17.60;66.40
49385;DHT22;36795;45.028;38.968;2023-05-14T16:39:48;17.60;67.70
49385;DHT22;36795;45.028;38.968;2023-05-14T16:42:34;17.50;68.10
49385;DHT22;36795;45.028;38.968;2023-05-14T16:45:20;17.50;68.70
49385;DHT22;36795;45.028;38.968;2023-05-14T16:48:06;17.40;69.50
49385;DHT22;36795;45.028;38.968;2023-05-14T16:50:52;17.30;70.60
49385;DHT22;36795;45.028;38.968;2023-05-14T16:53:38;17.30;71.40
49385;DHT22;36795;45.028;38.968;2023-05-14T16:56:24;17.20;72.10
49385;DHT22;36795;45.028;38.968;2023-05-14T16:59:11;17.10;72.50
49385;DHT22;36795;45.028;38.968;2023-05-14T17:01:57;17.00;73.20
49385;DHT22;36795;45.028;38.968;2023-05-14T17:04:43;16.90;73.50
49385;DHT22;36795;45.028;38.968;2023-05-14T17:07:29;17.00;73.70
49385;DHT22;36795;45.028;38.968;2023-05-14T17:10:16;17.00;74.00
49385;DHT22;36795;45.028;38.968;2023-05-14T17:13:02;16.90;74.40
49385;DHT22;36795;45.028;38.968;2023-05-14T17:15:50;16.90;74.90
49385;DHT22;36795;45.028;38.968;2023-05-14T17:18:36;16.90;75.10
49385;DHT22;36795;45.028;38.968;2023-05-14T17:21:22;16.80;75.20
49385;DHT22;36795;45.028;38.968;2023-05-14T17:24:08;16.80;75.40
49385;DHT22;36795;45.028;38.968;2023-05-14T17:26:54;16.80;75.50